Time;durP1;ratioP1;P1;durP2;ratioP2;P2;SDS_P1;SDS_P2;PMS_P1;PMS_P2;Temp;Humidity;BMP_temperature;BMP_pressure;BME280_temperature;BME280_humidity;BME280_pressure;Samples;Min_cycle;Max_cycle;Signal;HPM_P1;HPM_P2
2021/01/26 00:01:34;;;;;;;8.23;7.43;;;28.70;87.40;;;;;;5010183;28;20331;-50
2021/01/26 00:04:06;;;;;;;8.75;7.85;;;28.70;87.50;;;;;;5009828;28;20323;-51
2021/01/26 00:06:38;;;;;;;9.40;8.23;;;28.70;87.60;;;;;;5024159;28;20219;-50
2021/01/26 00:09:12;;;;;;;9.13;8.10;;;28.70;87.80;;;;;;5022914;28;20246;-51
2021/01/26 00:11:44;;;;;;;12.20;10.55;;;28.80;88.10;;;;;;5022537;28;20230;-50
2021/01/26 00:14:15;;;;;;;12.90;11.13;;;28.70;88.00;;;;;;5033062;28;20241;-50
2021/01/26 00:16:47;;;;;;;12.65;11.27;;;28.80;88.20;;;;;;4954993;28;20696;-50
2021/01/26 00:19:19;;;;;;;13.77;10.95;;;28.80;88.40;;;;;;4917402;29;20330;-49
2021/01/26 00:21:53;;;;;;;14.73;11.80;;;28.80;88.40;;;;;;4918295;29;20226;-49
2021/01/26 00:24:25;;;;;;;14.27;11.80;;;28.80;88.50;;;;;;4915330;29;20234;-49
2021/01/26 00:26:56;;;;;;;14.45;11.95;;;28.80;88.70;;;;;;4923514;29;20325;-50
2021/01/26 00:29:26;;;;;;;16.60;12.95;;;28.80;88.80;;;;;;4923591;29;20261;-50
2021/01/26 00:31:57;;;;;;;14.57;13.07;;;28.80;88.80;;;;;;4925010;29;20242;-49
2021/01/26 00:34:28;;;;;;;17.02;14.05;;;28.90;89.00;;;;;;4922217;29;20289;-49
2021/01/26 00:36:58;;;;;;;14.88;13.30;;;28.90;89.00;;;;;;4920869;29;20278;-51
2021/01/26 00:39:30;;;;;;;15.60;13.82;;;28.90;89.20;;;;;;4927384;29;20320;-50
2021/01/26 00:42:01;;;;;;;15.10;13.48;;;29.00;89.30;;;;;;4935388;29;20261;-49
2021/01/26 00:44:32;;;;;;;14.15;12.63;;;29.00;89.30;;;;;;4930774;29;20246;-49
2021/01/26 00:47:02;;;;;;;13.48;11.20;;;29.00;89.40;;;;;;4936757;28;20232;-50
2021/01/26 00:49:33;;;;;;;12.82;11.57;;;29.00;89.40;;;;;;4992707;28;20271;-54
2021/01/26 00:52:04;;;;;;;13.48;11.38;;;29.00;89.50;;;;;;5019990;28;20566;-51
2021/01/26 00:54:35;;;;;;;14.77;11.77;;;29.10;89.60;;;;;;5024730;28;20242;-53
2021/01/26 00:57:06;;;;;;;14.73;10.88;;;29.10;89.80;;;;;;5031630;28;20551;-53
2021/01/26 00:59:37;;;;;;;14.73;10.98;;;29.10;89.80;;;;;;5028450;28;20553;-55
2021/01/26 01:02:07;;;;;;;12.52;11.27;;;29.20;89.80;;;;;;5028011;28;20662;-53
2021/01/26 01:04:39;;;;;;;12.80;11.50;;;29.20;89.90;;;;;;5021454;28;20234;-52
2021/01/26 01:07:10;;;;;;;11.60;10.43;;;29.20;90.00;;;;;;5021454;28;20229;-53
2021/01/26 01:09:44;;;;;;;11.38;10.27;;;29.30;90.00;;;;;;5029768;28;20226;-50
2021/01/26 01:12:16;;;;;;;11.32;10.23;;;29.30;90.00;;;;;;5033512;28;20280;-53
2021/01/26 01:14:48;;;;;;;11.85;10.60;;;29.40;90.00;;;;;;5020137;28;20223;-49
2021/01/26 01:17:19;;;;;;;14.13;12.52;;;29.40;90.00;;;;;;5037007;28;20234;-51
2021/01/26 01:19:50;;;;;;;11.93;10.68;;;29.50;90.00;;;;;;5018461;28;20226;-54
2021/01/26 01:22:22;;;;;;;13.32;11.65;;;29.50;90.10;;;;;;5025933;28;20238;-51
2021/01/26 01:24:55;;;;;;;14.00;11.13;;;29.50;90.00;;;;;;5021670;28;20234;-49
2021/01/26 01:27:47;;;;;;;11.77;10.68;;;29.60;90.10;;;;;;4964121;28;20232;-50
2021/01/26 01:30:20;;;;;;;11.02;9.98;;;29.70;90.00;;;;;;4960821;28;20272;-50
2021/01/26 01:32:53;;;;;;;10.85;9.80;;;29.80;90.00;;;;;;4965678;28;20229;-51
2021/01/26 01:35:24;;;;;;;11.60;10.38;;;29.80;89.80;;;;;;4963952;28;20719;-55
2021/01/26 01:37:55;;;;;;;9.35;8.43;;;29.90;89.70;;;;;;4964868;28;20232;-50
2021/01/26 01:40:28;;;;;;;10.95;8.40;;;30.00;89.60;;;;;;4964575;28;20237;-50
2021/01/26 01:42:59;;;;;;;8.90;8.00;;;30.10;89.40;;;;;;4958973;28;20232;-50
2021/01/26 01:45:30;;;;;;;9.43;8.52;;;30.10;89.20;;;;;;4964534;28;20315;-51
2021/01/26 01:48:01;;;;;;;10.18;9.15;;;30.20;89.10;;;;;;4968910;28;20658;-50
2021/01/26 01:50:35;;;;;;;14.18;10.55;;;30.20;88.80;;;;;;4963272;28;20257;-52
2021/01/26 01:53:06;;;;;;;13.48;11.52;;;30.30;88.40;;;;;;4912002;29;20233;-51
2021/01/26 01:55:40;;;;;;;11.95;10.90;;;30.30;88.00;;;;;;4925050;29;20253;-49
2021/01/26 01:58:13;;;;;;;12.82;11.52;;;30.40;87.70;;;;;;4921081;29;20255;-49
2021/01/26 02:00:43;;;;;;;13.70;12.30;;;30.40;87.40;;;;;;4934579;28;20563;-54
2021/01/26 02:03:15;;;;;;;13.27;11.98;;;30.50;87.20;;;;;;4925032;29;20261;-49
2021/01/26 02:05:49;;;;;;;13.90;12.52;;;30.50;87.00;;;;;;4929856;29;20754;-51
2021/01/26 02:08:27;;;;;;;13.13;11.85;;;30.60;86.90;;;;;;4873878;29;20274;-49
2021/01/26 02:11:00;;;;;;;13.15;11.77;;;30.60;86.60;;;;;;4875330;29;20243;-51
2021/01/26 02:13:30;;;;;;;14.32;12.60;;;30.70;86.50;;;;;;4873829;29;20744;-52
2021/01/26 02:16:02;;;;;;;14.50;13.05;;;30.70;86.60;;;;;;4879340;29;20250;-50
2021/01/26 02:18:55;;;;;;;13.60;12.25;;;30.80;86.50;;;;;;4872996;29;20791;-50
2021/01/26 02:21:49;;;;;;;13.77;12.43;;;30.80;86.20;;;;;;4862295;29;20232;-50
2021/01/26 02:24:54;;;;;;;13.50;12.25;;;30.90;85.70;;;;;;4907801;28;20387;-52
2021/01/26 02:28:03;;;;;;;14.45;13.02;;;31.00;85.80;;;;;;4933054;28;20238;-51
2021/01/26 02:30:53;;;;;;;17.55;15.85;;;31.10;85.50;;;;;;4929009;29;20427;-52
2021/01/26 02:33:58;;;;;;;18.52;16.88;;;31.20;84.90;;;;;;4863925;29;20715;-52
2021/01/26 02:37:06;;;;;;;20.55;18.75;;;31.20;84.40;;;;;;4866039;29;20295;-49
2021/01/26 02:39:40;;;;;;;20.30;18.40;;;31.30;84.00;;;;;;4875150;29;20235;-51
2021/01/26 02:42:26;;;;;;;19.33;17.55;;;31.40;83.50;;;;;;4920571;29;20293;-52
2021/01/26 02:45:05;;;;;;;18.15;16.60;;;31.40;84.10;;;;;;4912006;29;20234;-54
2021/01/26 02:47:43;;;;;;;19.45;17.65;;;31.50;83.40;;;;;;4907919;29;20233;-50
2021/01/26 02:50:21;;;;;;;20.33;18.50;;;31.50;83.50;;;;;;4927859;29;20244;-50
2021/01/26 02:52:58;;;;;;;20.63;18.80;;;31.70;83.10;;;;;;4907933;29;20242;-51
2021/01/26 02:55:32;;;;;;;22.08;20.02;;;31.80;83.40;;;;;;4909968;29;20361;-50
2021/01/26 02:58:04;;;;;;;23.17;20.98;;;31.80;82.80;;;;;;4885113;29;20806;-53
2021/01/26 03:00:36;;;;;;;23.33;21.23;;;32.00;82.70;;;;;;4851961;29;20358;-50
2021/01/26 03:03:10;;;;;;;22.88;20.88;;;32.10;82.60;;;;;;4856556;29;20263;-52
2021/01/26 03:09:35;;;;;;;24.63;22.30;;;32.30;79.00;;;;;;4886104;29;20274;-53
2021/01/26 03:12:10;;;;;;;22.63;20.52;;;32.40;79.10;;;;;;4905683;29;20243;-53
2021/01/26 03:14:41;;;;;;;23.33;21.33;;;32.50;79.10;;;;;;4912804;29;20313;-48
2021/01/26 03:17:15;;;;;;;24.13;22.02;;;32.50;79.10;;;;;;4908978;29;20238;-48
2021/01/26 03:19:47;;;;;;;20.73;16.73;;;32.60;77.80;;;;;;4881355;29;20229;-49
2021/01/26 03:22:18;;;;;;;18.15;16.25;;;32.70;78.00;;;;;;4854030;29;20244;-52
2021/01/26 03:24:57;;;;;;;20.05;18.17;;;32.70;78.00;;;;;;4866869;29;20239;-49
2021/01/26 03:27:32;;;;;;;17.40;15.80;;;32.80;77.30;;;;;;4873900;29;20752;-61
2021/01/26 03:30:02;;;;;;;19.38;17.48;;;32.80;77.00;;;;;;4908865;29;20233;-51
2021/01/26 03:32:34;;;;;;;18.83;17.08;;;32.90;77.20;;;;;;4935774;28;20633;-49
2021/01/26 03:35:05;;;;;;;18.67;17.08;;;32.90;76.30;;;;;;4897536;29;20238;-50
2021/01/26 03:37:38;;;;;;;19.45;17.63;;;32.90;76.10;;;;;;4894899;29;20321;-47
2021/01/26 03:40:58;;;;;;;19.30;17.30;;;32.90;76.60;;;;;;4894617;29;20231;-54
2021/01/26 03:43:30;;;;;;;18.33;16.63;;;32.90;75.30;;;;;;4886713;29;20235;-49
2021/01/26 03:46:04;;;;;;;18.95;17.20;;;32.90;75.30;;;;;;4899913;29;20262;-55
2021/01/26 03:48:43;;;;;;;19.65;17.75;;;32.90;75.10;;;;;;4915291;29;20251;-54
2021/01/26 03:51:17;;;;;;;21.70;19.67;;;32.90;75.10;;;;;;4910482;29;20283;-53
2021/01/26 03:53:57;;;;;;;24.00;21.58;;;32.80;74.70;;;;;;4935006;28;20240;-53
2021/01/26 03:56:35;;;;;;;28.80;26.08;;;32.80;74.50;;;;;;4891054;29;20235;-52
2021/01/26 03:59:17;;;;;;;20.35;18.35;;;32.80;74.40;;;;;;4851972;29;20845;-49
2021/01/26 04:01:52;;;;;;;14.77;13.40;;;32.80;75.10;;;;;;4864013;29;20247;-50
2021/01/26 04:04:26;;;;;;;14.30;12.93;;;32.80;75.70;;;;;;4873222;29;20484;-52
2021/01/26 04:07:00;;;;;;;12.35;11.05;;;32.80;75.70;;;;;;4920486;29;20235;-52
2021/01/26 04:09:34;;;;;;;13.57;11.90;;;32.70;76.00;;;;;;4928560;29;20241;-52
2021/01/26 04:12:07;;;;;;;12.93;10.93;;;32.70;75.80;;;;;;4883179;29;21742;-49
2021/01/26 04:14:40;;;;;;;22.27;18.05;;;32.80;76.10;;;;;;4893128;29;20234;-50
2021/01/26 04:17:12;;;;;;;18.65;16.85;;;32.70;75.50;;;;;;4894704;29;20599;-53
2021/01/26 04:19:45;;;;;;;18.98;17.08;;;32.60;75.60;;;;;;4837558;29;20249;-52
2021/01/26 04:22:16;;;;;;;14.30;12.90;;;32.60;75.90;;;;;;4837871;29;20797;-50
2021/01/26 04:24:46;;;;;;;13.45;12.25;;;32.50;76.00;;;;;;4835268;29;20722;-49
2021/01/26 04:27:20;;;;;;;13.30;11.90;;;32.50;76.10;;;;;;4850383;29;20239;-49
2021/01/26 04:29:51;;;;;;;13.77;12.38;;;32.50;76.00;;;;;;4890958;29;20246;-53
2021/01/26 04:32:26;;;;;;;12.45;11.38;;;32.60;76.10;;;;;;4916682;29;20345;-56
2021/01/26 04:34:56;;;;;;;13.35;12.05;;;32.60;75.90;;;;;;4911244;29;20225;-50
2021/01/26 04:37:27;;;;;;;13.70;12.40;;;32.60;75.80;;;;;;4910310;29;20234;-49
2021/01/26 04:39:57;;;;;;;16.83;15.13;;;32.60;75.80;;;;;;4906578;29;20233;-49
2021/01/26 04:42:29;;;;;;;15.30;13.80;;;32.60;75.50;;;;;;4915224;29;20858;-49
2021/01/26 04:45:04;;;;;;;15.02;13.63;;;32.70;75.80;;;;;;4950578;28;20241;-49
2021/01/26 04:47:38;;;;;;;16.40;14.40;;;32.70;75.40;;;;;;4909529;29;20257;-49
2021/01/26 04:50:16;;;;;;;14.18;12.80;;;32.60;75.00;;;;;;4927718;28;20240;-51
2021/01/26 04:53:00;;;;;;;15.05;13.73;;;32.70;75.30;;;;;;4961925;28;20232;-51
2021/01/26 04:55:35;;;;;;;16.17;14.63;;;32.70;75.20;;;;;;4960176;28;20280;-50
2021/01/26 04:58:33;;;;;;;16.85;15.13;;;32.70;75.00;;;;;;4961554;28;20236;-50
2021/01/26 05:01:10;;;;;;;16.15;14.52;;;32.70;74.70;;;;;;4957888;28;20610;-51
2021/01/26 05:03:54;;;;;;;15.02;13.63;;;32.70;74.70;;;;;;4965323;28;20243;-50
2021/01/26 05:06:27;;;;;;;14.20;12.90;;;32.70;74.70;;;;;;4963621;28;20319;-51
2021/01/26 05:08:58;;;;;;;17.48;15.82;;;32.80;75.50;;;;;;4970264;28;20786;-52
2021/01/26 05:11:28;;;;;;;17.88;16.33;;;32.90;75.20;;;;;;4971551;28;20698;-48
2021/01/26 05:14:01;;;;;;;19.98;18.13;;;32.90;74.60;;;;;;4972578;28;20778;-50
2021/01/26 05:16:36;;;;;;;18.45;16.85;;;33.00;74.20;;;;;;4968679;28;20232;-48
2021/01/26 05:19:09;;;;;;;20.15;17.38;;;33.10;74.20;;;;;;4997328;28;20234;-50
2021/01/26 05:21:44;;;;;;;20.23;18.42;;;33.10;74.00;;;;;;4999632;28;20242;-50
2021/01/26 05:24:19;;;;;;;21.80;19.75;;;33.30;73.40;;;;;;4950822;28;20236;-49
2021/01/26 05:26:50;;;;;;;21.50;19.70;;;33.30;72.70;;;;;;4990586;28;20921;-48
2021/01/26 05:29:20;;;;;;;24.50;22.20;;;33.40;72.80;;;;;;5001605;28;20278;-48
2021/01/26 05:31:57;;;;;;;20.65;18.65;;;33.50;72.00;;;;;;4986000;28;20263;-49
2021/01/26 05:34:28;;;;;;;20.23;18.33;;;33.50;71.90;;;;;;5001936;28;20281;-51
2021/01/26 05:36:59;;;;;;;23.35;21.35;;;33.60;72.00;;;;;;5005253;28;20230;-52
2021/01/26 05:39:31;;;;;;;23.42;21.08;;;33.70;71.10;;;;;;5004545;28;20794;-50
2021/01/26 05:42:01;;;;;;;20.20;18.40;;;33.70;70.70;;;;;;5008320;28;20235;-53
2021/01/26 05:44:34;;;;;;;21.83;19.70;;;33.80;71.10;;;;;;5002915;28;20269;-48
2021/01/26 05:47:23;;;;;;;18.95;17.15;;;33.80;70.90;;;;;;4996808;28;20232;-49
2021/01/26 05:49:54;;;;;;;14.23;12.57;;;33.80;71.20;;;;;;4943718;28;20245;-48
2021/01/26 05:52:31;;;;;;;14.40;13.00;;;33.80;71.90;;;;;;4945416;28;20316;-50
2021/01/26 05:55:01;;;;;;;15.30;13.73;;;33.70;72.20;;;;;;4943632;28;20231;-49
2021/01/26 05:57:34;;;;;;;16.08;14.48;;;33.70;72.50;;;;;;4907111;29;20236;-49
2021/01/26 06:00:31;;;;;;;14.65;13.15;;;33.60;72.50;;;;;;4910647;29;20230;-48
2021/01/26 06:03:12;;;;;;;14.20;12.82;;;33.60;72.80;;;;;;4899038;29;20395;-54
2021/01/26 06:05:43;;;;;;;13.35;12.13;;;33.60;72.80;;;;;;4927085;29;20243;-51
2021/01/26 06:08:14;;;;;;;11.40;10.30;;;33.50;72.80;;;;;;4962009;28;20236;-47
2021/01/26 06:10:45;;;;;;;11.90;10.77;;;33.60;72.90;;;;;;4981997;28;20286;-48
2021/01/26 06:13:20;;;;;;;13.02;11.82;;;33.50;72.80;;;;;;4985047;28;20231;-50
2021/01/26 06:15:51;;;;;;;14.68;13.10;;;33.50;73.00;;;;;;4888455;29;20247;-51
2021/01/26 06:18:22;;;;;;;15.13;13.73;;;33.40;72.60;;;;;;4888853;29;20246;-49
2021/01/26 06:21:04;;;;;;;16.00;14.60;;;33.40;72.30;;;;;;4889627;29;20246;-50
2021/01/26 06:23:35;;;;;;;15.13;13.73;;;33.30;72.00;;;;;;4927082;28;20232;-49
2021/01/26 06:26:07;;;;;;;16.65;15.10;;;33.20;72.30;;;;;;4930365;28;20230;-49
2021/01/26 06:28:57;;;;;;;16.38;14.65;;;33.20;72.50;;;;;;4919162;29;20260;-49
2021/01/26 06:31:39;;;;;;;15.25;13.55;;;33.10;72.40;;;;;;4924546;29;20321;-51
2021/01/26 06:34:52;;;;;;;14.05;12.75;;;33.00;73.70;;;;;;4928767;29;20366;-51
2021/01/26 06:37:52;;;;;;;15.30;13.88;;;32.90;73.00;;;;;;4868114;29;20259;-50
2021/01/26 06:40:42;;;;;;;14.38;13.05;;;32.80;73.40;;;;;;4941387;28;20222;-53
2021/01/26 06:43:22;;;;;;;20.58;18.38;;;32.70;73.90;;;;;;4998138;28;20318;-50
2021/01/26 06:45:58;;;;;;;15.95;14.25;;;32.70;75.10;;;;;;4996428;28;20235;-54
2021/01/26 06:48:41;;;;;;;17.17;15.35;;;32.50;75.30;;;;;;5004088;28;20590;-51
2021/01/26 06:51:37;;;;;;;15.15;13.68;;;32.40;76.60;;;;;;4966624;28;20244;-53
2021/01/26 06:54:20;;;;;;;12.70;11.40;;;32.30;77.00;;;;;;4955394;28;20493;-50
2021/01/26 06:57:02;;;;;;;13.93;12.52;;;32.10;77.10;;;;;;4964615;28;20240;-51
2021/01/26 06:59:58;;;;;;;14.98;12.60;;;32.00;77.80;;;;;;4965987;28;20733;-53
2021/01/26 07:02:48;;;;;;;13.50;11.15;;;32.00;78.00;;;;;;4964089;28;20299;-52
2021/01/26 07:05:25;;;;;;;14.02;12.65;;;31.90;78.40;;;;;;4964416;28;20242;-50
2021/01/26 07:08:26;;;;;;;15.68;13.10;;;31.90;78.50;;;;;;4966301;28;20234;-52
2021/01/26 07:11:19;;;;;;;15.68;12.68;;;31.80;79.00;;;;;;4964602;28;20231;-50
2021/01/26 07:13:51;;;;;;;15.77;14.13;;;31.80;79.30;;;;;;4969095;28;20244;-53
2021/01/26 07:16:44;;;;;;;17.80;15.02;;;31.80;80.10;;;;;;4968344;28;20708;-52
2021/01/26 07:19:33;;;;;;;16.42;14.68;;;31.70;80.40;;;;;;4968408;28;20240;-52
2021/01/26 07:22:37;;;;;;;16.13;14.52;;;31.70;80.20;;;;;;4985037;28;20251;-53
2021/01/26 07:25:21;;;;;;;17.40;14.88;;;31.60;81.00;;;;;;5028284;28;20226;-50
2021/01/26 07:28:12;;;;;;;17.20;13.75;;;31.50;81.30;;;;;;5027367;28;20227;-48
2021/01/26 07:30:46;;;;;;;19.90;16.83;;;31.50;81.60;;;;;;5019114;28;20679;-52
2021/01/26 07:33:19;;;;;;;16.63;14.77;;;31.40;82.00;;;;;;5024736;28;20288;-50
2021/01/26 07:35:52;;;;;;;17.05;15.32;;;31.30;82.20;;;;;;5028353;28;20218;-53
2021/01/26 07:38:27;;;;;;;15.93;14.30;;;31.30;82.90;;;;;;5029531;28;20280;-51
2021/01/26 07:41:02;;;;;;;14.40;13.00;;;31.30;83.10;;;;;;5021342;28;20291;-49
2021/01/26 07:43:37;;;;;;;13.88;12.48;;;31.30;83.40;;;;;;4961900;28;20247;-49
2021/01/26 07:46:10;;;;;;;14.10;12.77;;;31.20;83.60;;;;;;4971740;28;20401;-49
2021/01/26 07:48:56;;;;;;;12.60;11.38;;;31.20;83.60;;;;;;4967968;28;20232;-48
2021/01/26 07:51:29;;;;;;;13.35;12.07;;;31.20;83.90;;;;;;4964939;28;20267;-49
2021/01/26 07:54:05;;;;;;;19.40;16.00;;;31.20;84.10;;;;;;4963717;28;20297;-51
2021/01/26 07:56:37;;;;;;;13.35;11.98;;;31.20;84.00;;;;;;4965275;28;20827;-51
2021/01/26 07:59:10;;;;;;;11.95;10.85;;;31.10;83.80;;;;;;4976323;28;20244;-53
2021/01/26 08:01:42;;;;;;;11.90;10.80;;;31.10;83.80;;;;;;4965435;28;21050;-55
2021/01/26 08:04:13;;;;;;;13.63;11.40;;;31.00;84.00;;;;;;4906695;29;20715;-55
2021/01/26 08:06:54;;;;;;;12.93;11.73;;;31.00;84.90;;;;;;4910554;29;20234;-50
2021/01/26 08:09:27;;;;;;;26.35;23.67;;;31.00;84.80;;;;;;4957681;28;20251;-49
2021/01/26 08:12:00;;;;;;;16.10;14.40;;;31.00;84.50;;;;;;4969422;28;20236;-55
2021/01/26 08:14:37;;;;;;;18.65;16.85;;;31.00;84.10;;;;;;4969684;28;20236;-49
2021/01/26 08:17:11;;;;;;;18.95;16.73;;;30.90;84.10;;;;;;4964980;28;20236;-50
2021/01/26 08:19:45;;;;;;;13.90;12.50;;;30.90;83.90;;;;;;4968404;28;20232;-49
2021/01/26 08:22:23;;;;;;;15.20;13.80;;;31.00;83.90;;;;;;4965371;28;20591;-50
2021/01/26 08:25:01;;;;;;;14.23;12.93;;;31.00;83.30;;;;;;4965198;28;20412;-50
2021/01/26 08:27:58;;;;;;;15.07;13.13;;;31.00;83.80;;;;;;4939350;28;21070;-49
2021/01/26 08:30:57;;;;;;;13.88;12.38;;;31.00;83.40;;;;;;5020257;28;20261;-54
2021/01/26 08:33:28;;;;;;;11.63;10.57;;;31.00;83.70;;;;;;4997688;28;20270;-49
2021/01/26 08:36:27;;;;;;;14.05;12.02;;;31.00;83.60;;;;;;4996105;28;20239;-51
2021/01/26 08:39:00;;;;;;;14.52;13.23;;;31.00;83.60;;;;;;5013594;28;20281;-49
2021/01/26 08:41:46;;;;;;;21.88;18.92;;;31.00;83.40;;;;;;5011390;28;20231;-52
2021/01/26 08:44:52;;;;;;;16.25;14.57;;;31.00;83.20;;;;;;4998095;28;20245;-50
2021/01/26 08:47:42;;;;;;;19.30;17.50;;;31.00;83.20;;;;;;4999071;28;20230;-50
2021/01/26 08:50:15;;;;;;;13.73;12.45;;;31.10;83.90;;;;;;4990607;28;20374;-55
2021/01/26 08:52:46;;;;;;;12.45;11.15;;;31.00;83.20;;;;;;5020061;28;20229;-50
2021/01/26 08:55:39;;;;;;;14.88;12.00;;;31.10;83.20;;;;;;5029599;28;20269;-51
2021/01/26 08:58:11;;;;;;;12.80;11.50;;;31.10;83.30;;;;;;5016058;28;20742;-54
2021/01/26 09:00:43;;;;;;;12.50;11.30;;;31.10;83.30;;;;;;5008625;28;24255;-51
2021/01/26 09:03:38;;;;;;;13.55;12.15;;;31.10;83.70;;;;;;5027134;28;20243;-54
2021/01/26 09:06:15;;;;;;;14.60;11.95;;;31.20;83.60;;;;;;5020034;28;20238;-49
2021/01/26 09:08:56;;;;;;;14.65;13.10;;;31.30;83.70;;;;;;4967210;28;20262;-50
2021/01/26 09:11:38;;;;;;;12.95;11.73;;;31.40;83.10;;;;;;4964971;28;20236;-51
2021/01/26 09:14:20;;;;;;;12.68;11.48;;;31.40;82.40;;;;;;4960271;28;20310;-52
2021/01/26 09:16:50;;;;;;;12.75;11.18;;;31.50;82.10;;;;;;4959731;28;20234;-50
2021/01/26 09:19:24;;;;;;;13.25;11.98;;;31.60;81.70;;;;;;4964541;28;20228;-48
2021/01/26 09:21:54;;;;;;;12.55;11.35;;;31.60;81.00;;;;;;4908738;29;20921;-53
2021/01/26 09:24:25;;;;;;;13.77;12.57;;;31.70;81.10;;;;;;4906124;29;20266;-50
2021/01/26 09:26:56;;;;;;;13.90;12.63;;;31.70;80.40;;;;;;4908152;29;20230;-52
2021/01/26 09:29:29;;;;;;;13.00;11.35;;;31.80;80.30;;;;;;4908461;29;20234;-52
2021/01/26 09:32:06;;;;;;;11.45;10.43;;;31.80;79.90;;;;;;4907804;29;20234;-54
2021/01/26 09:34:38;;;;;;;11.50;10.30;;;31.80;80.00;;;;;;4903837;29;20233;-53
2021/01/26 09:37:13;;;;;;;11.77;10.68;;;32.00;80.40;;;;;;4904081;29;20715;-51
2021/01/26 09:39:44;;;;;;;12.88;10.85;;;32.00;80.40;;;;;;4925032;28;20247;-52
2021/01/26 09:42:20;;;;;;;11.93;9.93;;;32.00;79.70;;;;;;4920638;29;20230;-49
2021/01/26 09:45:00;;;;;;;13.10;11.80;;;32.00;79.40;;;;;;4908798;29;20265;-52
2021/01/26 09:47:31;;;;;;;12.82;11.52;;;32.00;78.80;;;;;;4917017;29;20253;-55
2021/01/26 09:50:06;;;;;;;12.13;10.95;;;32.00;78.90;;;;;;4916162;29;20328;-54
2021/01/26 09:52:36;;;;;;;11.93;10.73;;;32.00;78.70;;;;;;4937436;28;20319;-52
2021/01/26 09:55:08;;;;;;;12.52;11.43;;;32.00;78.70;;;;;;4977336;28;20266;-53
2021/01/26 09:57:39;;;;;;;13.20;12.10;;;32.00;78.30;;;;;;4980643;28;20228;-55
2021/01/26 10:00:15;;;;;;;15.75;14.20;;;32.10;78.80;;;;;;4979973;28;20306;-53
2021/01/26 10:02:46;;;;;;;13.90;12.60;;;32.00;77.90;;;;;;4933882;28;20631;-49
2021/01/26 10:05:18;;;;;;;14.75;13.35;;;32.00;78.00;;;;;;4924328;29;20242;-53
2021/01/26 10:08:10;;;;;;;14.07;12.77;;;32.00;77.80;;;;;;4941711;28;20243;-52
2021/01/26 10:10:41;;;;;;;14.75;13.45;;;32.00;77.80;;;;;;4883025;29;20312;-52
2021/01/26 10:13:32;;;;;;;13.32;12.02;;;32.00;77.90;;;;;;4892768;29;20309;-50
2021/01/26 10:16:28;;;;;;;11.07;10.00;;;32.00;78.00;;;;;;4901120;29;20256;-53
2021/01/26 10:18:59;;;;;;;13.98;12.57;;;32.00;78.10;;;;;;4901275;29;20399;-49
2021/01/26 10:21:32;;;;;;;12.23;11.23;;;32.00;77.90;;;;;;4905075;29;20238;-49
2021/01/26 10:24:04;;;;;;;15.23;13.70;;;32.10;78.00;;;;;;4909016;29;20230;-51
2021/01/26 10:26:35;;;;;;;12.48;11.40;;;32.10;77.80;;;;;;4907428;29;20234;-52
2021/01/26 10:29:19;;;;;;;14.68;13.25;;;32.10;77.80;;;;;;4908314;29;20471;-50
2021/01/26 10:31:54;;;;;;;15.05;12.55;;;32.10;77.10;;;;;;4908974;29;20676;-52
2021/01/26 10:34:45;;;;;;;12.35;11.15;;;32.10;77.30;;;;;;4880719;29;21044;-50
2021/01/26 10:37:30;;;;;;;12.80;11.48;;;32.20;76.80;;;;;;4903860;29;20631;-50
2021/01/26 10:40:15;;;;;;;14.43;13.15;;;32.20;76.90;;;;;;4922269;29;20240;-53
2021/01/26 10:42:48;;;;;;;13.57;12.18;;;32.20;76.60;;;;;;4993618;28;20235;-49
2021/01/26 10:45:19;;;;;;;13.85;12.43;;;32.10;76.50;;;;;;5001347;28;20241;-53
2021/01/26 10:47:49;;;;;;;14.95;13.45;;;32.10;76.60;;;;;;4995224;28;20328;-51
2021/01/26 10:50:28;;;;;;;13.38;12.07;;;32.10;76.70;;;;;;5004821;28;20257;-51
2021/01/26 10:53:00;;;;;;;12.98;11.77;;;32.00;77.20;;;;;;4989274;28;20239;-53
2021/01/26 10:55:31;;;;;;;11.80;10.70;;;31.90;76.90;;;;;;5004299;28;20241;-53
2021/01/26 10:58:01;;;;;;;14.75;13.27;;;31.90;77.10;;;;;;5000413;28;20235;-51
2021/01/26 11:00:32;;;;;;;13.15;11.75;;;31.80;77.30;;;;;;5004290;28;20322;-49
2021/01/26 11:03:02;;;;;;;13.00;11.80;;;31.70;77.40;;;;;;4995777;28;20704;-48
2021/01/26 11:05:34;;;;;;;13.75;12.35;;;31.70;77.70;;;;;;5021257;28;20744;-52
2021/01/26 11:08:07;;;;;;;15.20;13.70;;;31.60;77.70;;;;;;5019791;28;20226;-51
2021/01/26 11:10:38;;;;;;;15.02;13.55;;;31.60;78.00;;;;;;5017511;28;20806;-50
2021/01/26 11:13:09;;;;;;;12.40;11.18;;;31.50;78.10;;;;;;5019103;28;20250;-53
2021/01/26 11:15:40;;;;;;;12.80;11.60;;;31.40;79.00;;;;;;5020096;28;20713;-53
2021/01/26 11:18:11;;;;;;;15.35;13.85;;;31.40;78.50;;;;;;5014509;28;20242;-51
2021/01/26 11:20:42;;;;;;;16.40;14.73;;;31.40;78.70;;;;;;5013935;28;20238;-48
2021/01/26 11:23:14;;;;;;;16.33;14.68;;;31.30;78.80;;;;;;5016455;28;20275;-50
2021/01/26 11:25:45;;;;;;;16.35;14.65;;;31.30;79.20;;;;;;5014951;28;20234;-55
2021/01/26 11:28:15;;;;;;;14.85;13.35;;;31.20;79.20;;;;;;5018830;28;20264;-53
2021/01/26 11:30:46;;;;;;;14.60;13.07;;;31.20;79.30;;;;;;5017153;28;20410;-55
2021/01/26 11:33:16;;;;;;;15.35;13.88;;;31.20;79.50;;;;;;5014626;28;20241;-52
2021/01/26 11:35:47;;;;;;;13.23;12.02;;;31.20;79.70;;;;;;5019771;28;21089;-50
2021/01/26 11:38:18;;;;;;;12.77;11.63;;;31.10;79.80;;;;;;5019922;28;20648;-52
2021/01/26 11:40:49;;;;;;;13.65;12.35;;;31.10;80.20;;;;;;5018492;28;20726;-54
2021/01/26 11:43:19;;;;;;;12.85;11.65;;;31.10;80.20;;;;;;5015569;28;20718;-54
2021/01/26 11:45:49;;;;;;;11.68;10.65;;;31.10;80.30;;;;;;5031967;28;20258;-52
2021/01/26 11:48:20;;;;;;;12.10;10.90;;;31.10;80.50;;;;;;4970464;28;20311;-55
2021/01/26 11:50:51;;;;;;;11.32;10.32;;;31.10;80.60;;;;;;4957036;28;20236;-52
2021/01/26 11:53:22;;;;;;;12.43;11.20;;;31.10;80.60;;;;;;4963101;28;20653;-54
2021/01/26 11:55:55;;;;;;;12.18;10.48;;;31.10;80.70;;;;;;4961699;28;20765;-49
2021/01/26 11:58:26;;;;;;;11.57;10.48;;;31.10;80.70;;;;;;4964208;28;20233;-50
2021/01/26 12:00:57;;;;;;;14.05;11.32;;;31.10;80.80;;;;;;4962798;28;20381;-51
2021/01/26 12:03:28;;;;;;;12.65;11.45;;;31.10;80.80;;;;;;4904967;29;20289;-52
2021/01/26 12:06:00;;;;;;;11.45;10.43;;;31.00;80.80;;;;;;4905320;29;20238;-52
2021/01/26 12:08:32;;;;;;;12.15;10.80;;;31.10;80.80;;;;;;4907806;29;20231;-52
2021/01/26 12:11:03;;;;;;;11.48;10.27;;;31.10;80.90;;;;;;4904237;29;20614;-53
2021/01/26 12:13:33;;;;;;;11.48;10.27;;;31.10;80.90;;;;;;4949617;28;20424;-51
2021/01/26 12:16:04;;;;;;;12.85;11.50;;;31.00;80.90;;;;;;4957030;28;20230;-50
2021/01/26 12:18:35;;;;;;;11.48;10.32;;;31.00;80.90;;;;;;4958697;28;20235;-52
2021/01/26 12:21:06;;;;;;;12.82;11.63;;;31.00;80.90;;;;;;4964621;28;20236;-50
2021/01/26 12:23:39;;;;;;;11.93;10.73;;;31.00;80.90;;;;;;4964759;28;20237;-48
2021/01/26 12:26:11;;;;;;;13.95;12.60;;;31.00;81.00;;;;;;4963032;28;20220;-52
2021/01/26 12:28:42;;;;;;;14.05;12.75;;;30.90;81.10;;;;;;5006544;28;20223;-53
2021/01/26 12:31:12;;;;;;;14.45;13.05;;;30.90;81.00;;;;;;5029757;28;20285;-51
2021/01/26 12:33:43;;;;;;;12.98;11.75;;;30.90;81.10;;;;;;5014773;28;20633;-54
2021/01/26 12:36:13;;;;;;;14.30;12.90;;;30.80;81.00;;;;;;5016430;28;20694;-51
2021/01/26 12:38:45;;;;;;;13.18;11.98;;;30.80;81.10;;;;;;5024300;28;20226;-52
2021/01/26 12:41:16;;;;;;;13.90;12.70;;;30.80;81.40;;;;;;5035137;28;20232;-52
2021/01/26 12:43:46;;;;;;;14.82;13.52;;;30.70;81.30;;;;;;5026074;28;20582;-50
2021/01/26 12:46:17;;;;;;;16.92;15.10;;;30.70;81.40;;;;;;5025380;28;20239;-48
2021/01/26 12:48:48;;;;;;;14.70;13.32;;;30.70;81.70;;;;;;5028155;28;20275;-51
2021/01/26 12:51:18;;;;;;;13.27;12.07;;;30.70;81.70;;;;;;5017112;28;20231;-48
2021/01/26 12:53:50;;;;;;;15.27;13.68;;;30.60;82.00;;;;;;5026320;28;20281;-52
2021/01/26 12:56:21;;;;;;;15.80;14.25;;;30.60;82.10;;;;;;5032123;28;20237;-50
2021/01/26 12:58:52;;;;;;;13.73;12.38;;;30.60;82.10;;;;;;5026151;28;20266;-51
2021/01/26 13:01:22;;;;;;;15.10;13.27;;;30.60;82.20;;;;;;5028056;28;20238;-50
2021/01/26 13:03:52;;;;;;;13.63;12.32;;;30.60;82.30;;;;;;5025738;28;20330;-50
2021/01/26 13:06:23;;;;;;;13.90;12.52;;;30.60;82.40;;;;;;5015209;28;20229;-51
2021/01/26 13:08:56;;;;;;;13.00;11.80;;;30.50;82.60;;;;;;5028000;28;22085;-48
2021/01/26 13:11:26;;;;;;;11.38;10.35;;;30.50;82.80;;;;;;5023681;28;20236;-54
2021/01/26 13:13:57;;;;;;;11.88;10.77;;;30.60;82.90;;;;;;5025827;28;20226;-52
2021/01/26 13:16:29;;;;;;;12.60;11.40;;;30.60;83.00;;;;;;5017364;28;20222;-49